createdAt,value
2018-09-22T00:01:17.882Z,64.00
2018-09-22T00:03:46.084Z,64.10
2018-09-22T00:06:14.318Z,64.20
2018-09-22T00:08:43.151Z,64.10
2018-09-22T00:11:12.102Z,64.50
2018-09-22T00:13:40.350Z,64.40
2018-09-22T00:16:08.587Z,64.60
2018-09-22T00:18:36.814Z,64.50
2018-09-22T00:21:05.071Z,64.50
2018-09-22T00:23:33.305Z,65.20
2018-09-22T00:26:01.507Z,64.70
2018-09-22T00:28:29.710Z,64.70
2018-09-22T00:30:57.938Z,65.10
2018-09-22T00:33:26.146Z,65.00
2018-09-22T00:35:54.354Z,65.00
2018-09-22T00:38:22.567Z,65.80
2018-09-22T00:40:50.767Z,66.20
2018-09-22T00:43:18.970Z,66.50
2018-09-22T00:45:47.215Z,66.70
2018-09-22T00:48:15.458Z,66.90
2018-09-22T00:50:43.670Z,67.20
2018-09-22T00:53:11.891Z,66.70
2018-09-22T00:55:40.088Z,67.10
2018-09-22T00:58:08.291Z,67.30
2018-09-22T01:00:36.513Z,67.30
2018-09-22T01:03:04.718Z,66.90
2018-09-22T01:05:32.922Z,66.00
2018-09-22T01:08:01.156Z,65.80
2018-09-22T01:10:29.347Z,65.60
2018-09-22T01:12:57.592Z,65.60
2018-09-22T01:15:25.828Z,66.70
2018-09-22T01:17:54.002Z,66.80
2018-09-22T01:20:22.227Z,67.50
2018-09-22T01:22:50.443Z,67.40
2018-09-22T01:25:18.694Z,67.10
2018-09-22T01:27:46.915Z,67.70
2018-09-22T01:30:15.114Z,67.60
2018-09-22T01:32:43.339Z,67.50
2018-09-22T01:35:11.562Z,67.70
2018-09-22T01:37:39.829Z,67.80
2018-09-22T01:40:08.140Z,67.90
2018-09-22T01:42:36.388Z,68.00
2018-09-22T01:45:04.894Z,67.80
2018-09-22T01:47:33.099Z,68.40
2018-09-22T01:50:01.324Z,68.40
2018-09-22T01:52:29.542Z,68.90
2018-09-22T01:54:57.767Z,68.60
2018-09-22T01:57:26.007Z,68.60
2018-09-22T01:59:54.242Z,69.00
2018-09-22T02:02:22.454Z,69.00
2018-09-22T02:04:50.687Z,68.80
2018-09-22T02:07:18.924Z,69.10
2018-09-22T02:09:47.200Z,68.70
2018-09-22T02:12:15.875Z,68.70
2018-09-22T02:14:44.070Z,68.80
2018-09-22T02:17:12.282Z,68.80
2018-09-22T02:19:40.466Z,69.20
2018-09-22T02:22:08.687Z,68.90
2018-09-22T02:24:36.903Z,68.90
2018-09-22T02:27:05.183Z,68.90
2018-09-22T02:29:33.390Z,69.30
2018-09-22T02:32:01.610Z,69.30
2018-09-22T02:34:29.866Z,69.30
2018-09-22T02:36:58.167Z,69.70
2018-09-22T02:39:26.423Z,69.50
2018-09-22T02:41:54.638Z,69.70
2018-09-22T02:44:22.848Z,69.50
2018-09-22T02:46:51.064Z,69.50
2018-09-22T02:49:19.322Z,70.00
2018-09-22T02:51:47.559Z,70.10
2018-09-22T02:54:15.762Z,69.90
2018-09-22T02:56:43.982Z,70.00
2018-09-22T02:59:12.192Z,69.80
2018-09-22T03:01:40.433Z,69.90
2018-09-22T03:04:08.690Z,69.60
2018-09-22T03:06:36.946Z,69.80
2018-09-22T03:09:07.387Z,69.70
2018-09-22T03:11:35.615Z,70.10
2018-09-22T03:14:03.885Z,69.80
2018-09-22T03:16:32.223Z,70.80
2018-09-22T03:19:00.558Z,70.50
2018-09-22T03:21:28.775Z,70.30
2018-09-22T03:23:56.994Z,69.00
2018-09-22T03:26:25.846Z,70.20
2018-09-22T03:28:54.711Z,69.10
2018-09-22T03:31:22.930Z,69.20
2018-09-22T03:33:51.138Z,70.70
2018-09-22T03:36:19.346Z,69.80
2018-09-22T03:38:47.590Z,70.80
2018-09-22T03:41:15.841Z,70.60
2018-09-22T03:43:44.159Z,70.40
2018-09-22T03:46:12.371Z,70.70
2018-09-22T03:48:40.572Z,70.80
2018-09-22T03:51:08.827Z,70.90
2018-09-22T03:53:37.059Z,70.80
2018-09-22T03:56:05.296Z,71.00
2018-09-22T03:58:33.511Z,71.60
2018-09-22T04:01:01.735Z,71.50
2018-09-22T04:03:29.962Z,71.40
2018-09-22T04:05:58.171Z,71.50
2018-09-22T04:08:26.414Z,71.70
2018-09-22T04:10:54.618Z,72.00
2018-09-22T04:13:22.850Z,71.90
2018-09-22T04:15:51.059Z,72.40
2018-09-22T04:18:19.279Z,72.30
2018-09-22T04:20:47.745Z,73.20
2018-09-22T04:23:15.950Z,72.70
2018-09-22T04:25:44.145Z,73.20
2018-09-22T04:28:12.363Z,72.60
2018-09-22T04:30:40.557Z,72.20
2018-09-22T04:33:08.818Z,71.80
2018-09-22T04:35:37.010Z,72.20
2018-09-22T04:38:05.211Z,72.80
2018-09-22T04:40:33.443Z,72.70
2018-09-22T04:43:01.671Z,73.10
2018-09-22T04:45:33.244Z,72.50
2018-09-22T04:48:01.462Z,73.50
2018-09-22T04:50:29.807Z,72.80
2018-09-22T04:52:58.052Z,73.40
2018-09-22T04:55:26.250Z,73.40
2018-09-22T04:57:55.126Z,73.50
2018-09-22T05:00:23.354Z,73.40
2018-09-22T05:02:51.590Z,73.80
2018-09-22T05:05:19.887Z,73.80
2018-09-22T05:07:48.094Z,73.90
2018-09-22T05:10:17.358Z,74.40
2018-09-22T05:12:45.561Z,74.80
2018-09-22T05:15:13.785Z,74.90
2018-09-22T05:17:42.038Z,74.60
2018-09-22T05:20:10.267Z,74.50
2018-09-22T05:22:38.583Z,75.20
2018-09-22T05:25:06.882Z,75.30
2018-09-22T05:27:35.128Z,75.10
2018-09-22T05:30:03.441Z,76.30
2018-09-22T05:32:31.652Z,76.10
2018-09-22T05:34:59.859Z,75.70
2018-09-22T05:37:28.055Z,75.30
2018-09-22T05:39:56.283Z,75.50
2018-09-22T05:42:24.486Z,75.60
2018-09-22T05:44:52.706Z,76.10
2018-09-22T05:47:20.916Z,76.00
2018-09-22T05:49:49.128Z,76.10
2018-09-22T05:52:17.319Z,76.20
2018-09-22T05:54:45.555Z,76.10
2018-09-22T05:57:13.803Z,76.50
2018-09-22T05:59:42.026Z,76.00
2018-09-22T06:02:10.354Z,76.10
2018-09-22T06:04:38.572Z,76.60
2018-09-22T06:07:06.868Z,76.20
2018-09-22T06:09:35.099Z,75.80
2018-09-22T06:12:03.363Z,76.00
2018-09-22T06:14:31.574Z,75.70
2018-09-22T06:16:59.787Z,75.40
2018-09-22T06:19:28.005Z,75.70
2018-09-22T06:21:56.214Z,75.30
2018-09-22T06:24:24.424Z,75.60
2018-09-22T06:26:52.694Z,75.80
2018-09-22T06:29:20.919Z,75.10
2018-09-22T06:31:49.198Z,74.50
2018-09-22T06:34:17.424Z,74.50
2018-09-22T06:36:45.631Z,72.60
2018-09-22T06:39:13.840Z,72.50
2018-09-22T06:41:42.062Z,72.30
2018-09-22T06:44:10.321Z,72.00
2018-09-22T06:46:38.547Z,71.60
2018-09-22T06:49:06.743Z,71.60
2018-09-22T06:51:34.966Z,71.50
2018-09-22T06:54:03.169Z,71.30
2018-09-22T06:56:31.407Z,71.70
2018-09-22T06:58:59.678Z,71.10
2018-09-22T07:01:27.907Z,71.40
2018-09-22T07:03:56.283Z,71.30
2018-09-22T07:06:24.544Z,71.20
2018-09-22T07:08:52.886Z,71.00
2018-09-22T07:11:21.101Z,70.90
2018-09-22T07:13:49.354Z,70.50
2018-09-22T07:16:17.543Z,70.00
2018-09-22T07:18:45.762Z,69.70
2018-09-22T07:21:13.981Z,69.80
2018-09-22T07:23:42.255Z,69.70
2018-09-22T07:26:11.650Z,70.00
2018-09-22T07:28:39.845Z,69.80
2018-09-22T07:31:08.122Z,69.50
2018-09-22T07:33:36.343Z,69.40
2018-09-22T07:36:04.595Z,69.90
2018-09-22T07:38:32.800Z,68.90
2018-09-22T07:41:01.035Z,68.80
2018-09-22T07:43:29.262Z,68.90
2018-09-22T07:45:57.482Z,68.60
2018-09-22T07:48:25.685Z,68.20
2018-09-22T07:50:53.885Z,67.70
2018-09-22T07:53:22.131Z,67.70
2018-09-22T07:55:51.483Z,68.10
2018-09-22T07:58:19.712Z,68.00
2018-09-22T08:00:47.918Z,67.90
2018-09-22T08:03:16.146Z,68.10
2018-09-22T08:05:44.442Z,67.90
2018-09-22T08:08:13.179Z,68.00
2018-09-22T08:10:41.418Z,67.70
2018-09-22T08:13:10.155Z,67.90
2018-09-22T08:15:38.384Z,66.10
2018-09-22T08:18:06.583Z,67.70
2018-09-22T08:20:34.838Z,67.10
2018-09-22T08:23:03.144Z,66.80
2018-09-22T08:25:31.359Z,66.40
2018-09-22T08:27:59.722Z,65.90
2018-09-22T08:30:27.940Z,67.00
2018-09-22T08:32:56.159Z,66.50
2018-09-22T08:35:24.360Z,67.00
2018-09-22T08:37:52.622Z,66.50
2018-09-22T08:40:20.818Z,65.40
2018-09-22T08:42:49.026Z,66.00
2018-09-22T08:45:17.223Z,65.40
2018-09-22T08:47:45.478Z,65.70
2018-09-22T08:50:13.681Z,65.00
2018-09-22T08:52:41.882Z,64.90
2018-09-22T08:55:10.132Z,64.30
2018-09-22T08:57:38.369Z,62.80
2018-09-22T09:00:06.878Z,64.10
2018-09-22T09:02:35.087Z,64.60
2018-09-22T09:05:03.462Z,64.30
2018-09-22T09:07:31.604Z,63.90
2018-09-22T09:09:59.818Z,64.30
2018-09-22T09:12:28.039Z,64.00
2018-09-22T09:14:56.298Z,64.60
2018-09-22T09:17:24.503Z,63.90
2018-09-22T09:19:52.750Z,62.90
2018-09-22T09:22:20.967Z,62.70
2018-09-22T09:24:49.351Z,61.90
2018-09-22T09:27:17.630Z,62.90
2018-09-22T09:29:45.856Z,60.70
2018-09-22T09:32:16.610Z,60.70
2018-09-22T09:34:45.534Z,61.80
2018-09-22T09:37:13.749Z,61.60
2018-09-22T09:39:41.967Z,60.30
2018-09-22T09:42:10.174Z,59.80
2018-09-22T09:44:38.708Z,59.60
2018-09-22T09:47:07.004Z,59.20
2018-09-22T09:49:35.254Z,58.50
2018-09-22T09:52:03.484Z,59.30
2018-09-22T09:54:31.913Z,58.60
2018-09-22T09:57:00.154Z,57.50
2018-09-22T09:59:28.717Z,58.20
2018-09-22T10:01:56.995Z,56.70
2018-09-22T10:04:25.281Z,57.20
2018-09-22T10:06:54.127Z,56.80
2018-09-22T10:09:22.369Z,56.50
2018-09-22T10:11:51.487Z,56.90
2018-09-22T10:14:19.671Z,55.10
2018-09-22T10:16:47.901Z,56.40
2018-09-22T10:19:16.102Z,54.50
2018-09-22T10:21:44.411Z,55.10
2018-09-22T10:24:12.647Z,55.50
2018-09-22T10:26:40.901Z,54.70
2018-09-22T10:29:09.110Z,54.40
2018-09-22T10:31:37.401Z,54.40
2018-09-22T10:34:05.654Z,55.00
2018-09-22T10:36:33.909Z,53.70
2018-09-22T10:39:02.630Z,54.20
2018-09-22T10:41:30.833Z,53.70
2018-09-22T10:43:59.052Z,53.70
2018-09-22T10:46:27.291Z,52.90
2018-09-22T10:48:55.506Z,52.10
2018-09-22T10:51:23.717Z,51.30
2018-09-22T10:53:51.951Z,52.80
2018-09-22T10:56:20.218Z,51.10
2018-09-22T10:58:48.451Z,52.10
2018-09-22T11:01:16.666Z,50.20
2018-09-22T11:03:44.946Z,49.40
2018-09-22T11:06:13.162Z,49.50
2018-09-22T11:08:41.411Z,49.20
2018-09-22T11:11:09.619Z,49.20
2018-09-22T11:13:37.846Z,48.80
2018-09-22T11:16:06.142Z,49.40
2018-09-22T11:18:34.371Z,48.50
2018-09-22T11:21:02.567Z,48.90
2018-09-22T11:23:30.774Z,48.90
2018-09-22T11:25:58.990Z,48.50
2018-09-22T11:28:27.227Z,48.60
2018-09-22T11:30:55.447Z,48.60
2018-09-22T11:33:23.685Z,49.10
2018-09-22T11:35:51.945Z,49.60
2018-09-22T11:38:20.248Z,49.40
2018-09-22T11:40:48.476Z,50.50
2018-09-22T11:43:16.687Z,50.90
2018-09-22T11:45:44.891Z,51.60
2018-09-22T11:48:13.101Z,51.70
2018-09-22T11:50:41.307Z,51.70
2018-09-22T11:53:09.528Z,51.40
2018-09-22T11:55:37.731Z,52.90
2018-09-22T11:58:06.557Z,53.00
2018-09-22T12:00:34.950Z,52.70
2018-09-22T12:03:03.179Z,53.40
2018-09-22T12:05:32.000Z,53.10
2018-09-22T12:08:00.319Z,53.40
2018-09-22T12:10:28.584Z,53.30
2018-09-22T12:12:56.866Z,53.60
2018-09-22T12:15:25.140Z,52.50
2018-09-22T12:17:53.399Z,53.20
2018-09-22T12:20:21.666Z,52.20
2018-09-22T12:22:50.005Z,52.90
2018-09-22T12:25:18.263Z,52.20
2018-09-22T12:27:46.553Z,52.30
2018-09-22T12:30:14.799Z,51.60
2018-09-22T12:32:43.066Z,52.00
2018-09-22T12:35:11.387Z,51.90
2018-09-22T12:37:39.614Z,52.10
2018-09-22T12:40:07.877Z,51.30
2018-09-22T12:42:36.090Z,51.50
2018-09-22T12:45:04.432Z,51.50
2018-09-22T12:47:32.847Z,51.80
2018-09-22T12:50:01.101Z,52.20
2018-09-22T12:52:29.371Z,52.30
2018-09-22T12:54:58.068Z,52.00
2018-09-22T12:57:32.558Z,51.70
2018-09-22T13:00:00.869Z,51.70
2018-09-22T13:02:29.091Z,51.40
2018-09-22T13:04:57.408Z,51.30
2018-09-22T13:07:26.395Z,51.00
2018-09-22T13:09:54.702Z,51.60
2018-09-22T13:12:22.926Z,51.70
2018-09-22T13:14:51.747Z,51.80
2018-09-22T13:17:20.021Z,52.00
2018-09-22T13:19:48.282Z,52.00
2018-09-22T13:22:16.543Z,52.40
2018-09-22T13:24:44.839Z,52.80
2018-09-22T13:27:13.126Z,53.30
2018-09-22T13:29:42.065Z,53.70
2018-09-22T13:32:11.089Z,54.60
2018-09-22T13:34:39.303Z,55.20
2018-09-22T13:37:08.006Z,55.60
2018-09-22T13:39:36.204Z,55.60
2018-09-22T13:42:04.438Z,56.20
2018-09-22T13:44:32.660Z,55.90
2018-09-22T13:47:00.906Z,56.10
2018-09-22T13:49:29.150Z,55.90
2018-09-22T13:51:57.366Z,56.90
2018-09-22T13:54:25.805Z,56.80
2018-09-22T13:56:54.015Z,57.20
2018-09-22T13:59:22.226Z,57.60
2018-09-22T14:01:50.435Z,57.70
2018-09-22T14:04:18.898Z,57.80
2018-09-22T14:06:47.095Z,58.10
2018-09-22T14:09:15.320Z,58.10
2018-09-22T14:11:43.628Z,58.00
2018-09-22T14:14:11.843Z,57.90
2018-09-22T14:16:40.182Z,58.10
2018-09-22T14:19:09.026Z,58.20
2018-09-22T14:21:37.250Z,58.30
2018-09-22T14:24:05.572Z,58.50
2018-09-22T14:26:33.718Z,58.10
2018-09-22T14:29:01.946Z,58.30
2018-09-22T14:31:30.203Z,58.80
2018-09-22T14:33:58.419Z,58.30
2018-09-22T14:36:26.618Z,58.20
2018-09-22T14:38:54.846Z,58.00
2018-09-22T14:41:23.054Z,58.60
2018-09-22T14:43:51.266Z,59.50
2018-09-22T14:46:19.472Z,59.00
2018-09-22T14:48:47.873Z,59.50
2018-09-22T14:51:16.230Z,59.60
2018-09-22T14:53:44.730Z,59.40
2018-09-22T14:56:13.842Z,59.30
2018-09-22T14:58:42.051Z,59.50
2018-09-22T15:01:10.275Z,60.00
2018-09-22T15:03:38.534Z,60.10
2018-09-22T15:06:06.863Z,60.20
2018-09-22T15:08:35.119Z,61.00
2018-09-22T15:11:03.556Z,60.80
2018-09-22T15:13:31.753Z,61.30
2018-09-22T15:15:59.967Z,60.50
2018-09-22T15:18:28.166Z,60.90
2018-09-22T15:20:56.398Z,60.90
2018-09-22T15:23:24.643Z,61.20
2018-09-22T15:25:52.847Z,61.70
2018-09-22T15:28:21.050Z,61.80
2018-09-22T15:30:49.246Z,62.00
2018-09-22T15:33:17.468Z,62.90
2018-09-22T15:35:45.683Z,62.90
2018-09-22T15:38:13.900Z,63.10
2018-09-22T15:40:42.103Z,63.10
2018-09-22T15:43:10.299Z,64.10
2018-09-22T15:45:38.575Z,64.00
2018-09-22T15:48:06.804Z,64.00
2018-09-22T15:50:34.941Z,64.20
2018-09-22T15:53:03.158Z,63.80
2018-09-22T15:55:31.438Z,64.30
2018-09-22T15:57:59.639Z,64.60
2018-09-22T16:00:27.852Z,65.00
2018-09-22T16:02:56.059Z,64.80
2018-09-22T16:05:24.271Z,65.10
2018-09-22T16:07:52.961Z,64.90
2018-09-22T16:10:21.162Z,64.80
2018-09-22T16:12:49.353Z,65.40
2018-09-22T16:15:17.555Z,65.40
2018-09-22T16:17:45.751Z,65.80
2018-09-22T16:20:13.958Z,65.70
2018-09-22T16:22:42.170Z,66.30
2018-09-22T16:25:10.378Z,65.70
2018-09-22T16:27:38.701Z,66.20
2018-09-22T16:30:08.159Z,66.30
2018-09-22T16:32:36.347Z,66.40
2018-09-22T16:35:04.589Z,66.60
2018-09-22T16:37:32.742Z,67.20
2018-09-22T16:40:01.030Z,66.90
2018-09-22T16:42:29.235Z,67.20
2018-09-22T16:44:57.455Z,67.20
2018-09-22T16:47:25.929Z,67.00
2018-09-22T16:49:54.190Z,67.30
2018-09-22T16:52:22.406Z,67.40
2018-09-22T16:54:50.601Z,67.00
2018-09-22T16:57:18.802Z,67.60
2018-09-22T16:59:47.004Z,67.60
2018-09-22T17:02:15.219Z,68.20
2018-09-22T17:04:43.438Z,68.50
2018-09-22T17:07:11.736Z,68.60
2018-09-22T17:09:40.057Z,68.40
2018-09-22T17:12:08.187Z,68.70
2018-09-22T17:14:36.393Z,69.00
2018-09-22T17:17:05.275Z,68.90
2018-09-22T17:19:33.596Z,68.60
2018-09-22T17:22:02.248Z,68.90
2018-09-22T17:24:30.450Z,68.80
2018-09-22T17:26:58.678Z,69.10
2018-09-22T17:29:26.900Z,69.10
2018-09-22T17:31:55.154Z,69.10
2018-09-22T17:34:24.046Z,69.10
2018-09-22T17:36:53.484Z,69.60
2018-09-22T17:39:22.098Z,69.60
2018-09-22T17:41:50.330Z,70.00
2018-09-22T17:44:18.534Z,69.50
2018-09-22T17:46:46.734Z,69.80
2018-09-22T17:49:14.945Z,70.30
2018-09-22T17:51:43.212Z,70.30
2018-09-22T17:54:11.467Z,70.20
2018-09-22T17:56:39.748Z,70.30
2018-09-22T17:59:07.963Z,70.50
2018-09-22T18:01:36.207Z,70.60
2018-09-22T18:04:04.406Z,72.10
2018-09-22T18:06:32.659Z,71.10
2018-09-22T18:09:00.872Z,71.60
2018-09-22T18:11:29.075Z,71.30
2018-09-22T18:13:57.299Z,71.70
2018-09-22T18:16:25.510Z,71.60
2018-09-22T18:18:53.830Z,71.40
2018-09-22T18:21:22.127Z,71.50
2018-09-22T18:23:50.369Z,71.90
2018-09-22T18:26:18.570Z,71.80
2018-09-22T18:28:46.782Z,72.20
2018-09-22T18:31:15.399Z,71.90
2018-09-22T18:33:44.156Z,72.30
2018-09-22T18:36:12.382Z,71.90
2018-09-22T18:38:40.623Z,72.20
2018-09-22T18:41:08.814Z,72.40
2018-09-22T18:43:37.096Z,72.60
2018-09-22T18:46:05.497Z,72.20
2018-09-22T18:48:33.742Z,71.50
2018-09-22T18:51:01.990Z,73.50
2018-09-22T18:53:30.244Z,72.50
2018-09-22T18:55:58.451Z,72.70
2018-09-22T18:58:26.951Z,71.70
2018-09-22T19:00:55.351Z,72.70
2018-09-22T19:03:23.586Z,72.90
2018-09-22T19:05:51.793Z,73.40
2018-09-22T19:08:20.047Z,72.70
2018-09-22T19:10:48.386Z,73.40
2018-09-22T19:13:20.871Z,73.10
2018-09-22T19:15:50.899Z,73.50
2018-09-22T19:18:25.187Z,73.70
2018-09-22T19:21:58.890Z,74.60
2018-09-22T19:25:30.454Z,73.90
2018-09-22T19:30:05.419Z,74.00
2018-09-22T19:32:37.179Z,73.90
2018-09-22T19:35:11.259Z,74.50
2018-09-22T19:37:57.394Z,74.70
2018-09-22T19:40:29.319Z,74.60
2018-09-22T19:43:06.210Z,74.60
2018-09-22T19:45:38.485Z,74.40
2018-09-22T19:48:10.965Z,74.50
2018-09-22T19:50:45.454Z,75.20
2018-09-22T19:53:13.631Z,75.10
2018-09-22T19:55:41.839Z,74.80
2018-09-22T19:58:10.142Z,75.20
2018-09-22T20:00:38.254Z,75.20
2018-09-22T20:03:06.479Z,75.70
2018-09-22T20:05:34.683Z,75.90
2018-09-22T20:08:02.938Z,74.90
2018-09-22T20:10:31.118Z,75.00
2018-09-22T20:12:59.323Z,74.90
2018-09-22T20:15:27.554Z,75.60
2018-09-22T20:17:55.758Z,75.80
2018-09-22T20:20:23.966Z,75.70
2018-09-22T20:22:52.174Z,75.40
2018-09-22T20:25:20.367Z,75.70
2018-09-22T20:27:48.603Z,75.90
2018-09-22T20:30:16.862Z,75.90
2018-09-22T20:32:45.173Z,75.90
2018-09-22T20:35:13.366Z,75.80
2018-09-22T20:37:41.591Z,76.00
2018-09-22T20:40:09.810Z,76.00
2018-09-22T20:42:38.022Z,76.30
2018-09-22T20:45:06.330Z,75.80
2018-09-22T20:47:34.612Z,76.10
2018-09-22T20:50:02.809Z,76.10
2018-09-22T20:52:31.024Z,76.40
2018-09-22T20:54:59.260Z,76.50
2018-09-22T20:57:27.460Z,76.30
2018-09-22T20:59:55.703Z,76.30
2018-09-22T21:02:23.905Z,76.10
2018-09-22T21:04:52.107Z,76.40
2018-09-22T21:07:20.323Z,76.60
2018-09-22T21:09:48.560Z,76.40
2018-09-22T21:12:16.752Z,76.70
2018-09-22T21:14:44.961Z,77.00
2018-09-22T21:17:13.168Z,76.50
2018-09-22T21:19:41.378Z,76.70
2018-09-22T21:22:09.980Z,77.00
2018-09-22T21:24:38.194Z,76.70
2018-09-22T21:27:06.422Z,77.10
2018-09-22T21:29:34.631Z,76.90
2018-09-22T21:32:02.864Z,77.30
2018-09-22T21:34:31.087Z,77.40
2018-09-22T21:36:59.294Z,76.80
2018-09-22T21:39:27.511Z,76.60
2018-09-22T21:41:55.737Z,76.40
2018-09-22T21:44:23.899Z,77.40
2018-09-22T21:46:52.090Z,77.80
2018-09-22T21:49:20.957Z,78.40
2018-09-22T21:51:49.149Z,77.60
2018-09-22T21:54:18.379Z,77.50
2018-09-22T21:56:46.570Z,77.80
2018-09-22T21:59:14.795Z,77.90
2018-09-22T22:01:42.989Z,77.70
2018-09-22T22:04:11.754Z,78.10
2018-09-22T22:06:39.951Z,77.80
2018-09-22T22:09:10.761Z,77.70
2018-09-22T22:11:39.046Z,77.10
2018-09-22T22:14:07.825Z,77.90
2018-09-22T22:16:36.081Z,78.00
2018-09-22T22:19:04.270Z,77.90
2018-09-22T22:21:32.746Z,77.70
2018-09-22T22:24:01.037Z,77.80
2018-09-22T22:26:29.394Z,77.80
2018-09-22T22:28:57.607Z,78.00
2018-09-22T22:31:25.877Z,78.20
2018-09-22T22:33:54.087Z,78.10
2018-09-22T22:36:22.659Z,78.30
2018-09-22T22:38:50.813Z,78.80
2018-09-22T22:41:19.022Z,78.30
2018-09-22T22:43:47.225Z,77.90
2018-09-22T22:46:15.422Z,78.20
2018-09-22T22:48:44.104Z,77.80
2018-09-22T22:51:12.307Z,78.30
2018-09-22T22:53:40.526Z,79.20
2018-09-22T22:56:08.810Z,78.30
2018-09-22T22:58:37.294Z,78.70
2018-09-22T23:01:06.355Z,78.80
2018-09-22T23:03:34.842Z,79.10
2018-09-22T23:06:03.114Z,79.60
2018-09-22T23:08:31.343Z,79.10
2018-09-22T23:10:59.572Z,79.80
2018-09-22T23:13:27.765Z,79.70
2018-09-22T23:15:55.982Z,79.30
2018-09-22T23:18:24.288Z,80.00
2018-09-22T23:20:52.505Z,79.60
2018-09-22T23:23:20.674Z,79.80
2018-09-22T23:25:48.892Z,79.40
2018-09-22T23:28:17.087Z,79.50
2018-09-22T23:30:45.307Z,79.70
2018-09-22T23:33:13.514Z,80.10
2018-09-22T23:35:41.742Z,80.10
2018-09-22T23:38:09.963Z,79.50
2018-09-22T23:40:38.201Z,80.20
2018-09-22T23:43:06.455Z,79.70
2018-09-22T23:45:34.675Z,79.30
2018-09-22T23:48:02.969Z,79.80
2018-09-22T23:50:31.179Z,79.60
2018-09-22T23:52:59.373Z,79.70
2018-09-22T23:55:27.598Z,79.40
2018-09-22T23:57:55.812Z,80.20
